KRSP

NSF Thurmont

NSF Thurmont, Maryland, USA
METAR KRSP 191226Z AUTO VRB06KT 4SM BR FEW004 19/19 A2999 RMK AO2 $
Observed Flight Rules
Sep-19 @ 12:26 UTC (30 minutes ago) Marginal Visual Flight Rules
Wind Visibility Clouds Conditions
Variable at 6 knots 4 miles
  • Few at 400' AGL
  • Mist
Temperatures Readings
Current 19°C / 66°F
Dewpoint 19°C / 66°F
Humidity 100%
Altimeter 29.99" Hg
Pressure 1016 hPa
Elevation 561
METAR KRSP 191226Z AUTO VRB06KT 4SM BR FEW004 19/19 A2999 RMK AO2 $
Observed Flight Rules
Sep-19 @ 12:26 UTC
(30 minutes ago)
MVFR
Wind Visibility
Variable at 6 knots 4 miles
Clouds
  • Few at 400' AGL
Conditions
  • Mist
Temperature Dewpoint
19°C / 66°F 19°C / 66°F
Humidity Altimeter Pressure
100% 29.99" Hg 1016 hPa